Portada
METAR-TAF:

METAR-TAF

Aeroports :

Krabi, Tailàndia

latitud: 08-06-03N, longitud: 098-59-05E, altitud: 25 m

Observació

L'informe es va fer fa 1 hora i 45 minuts, a les 13:00 UTC
Vent 6 kt del Est, variant entre Nord-Est i Est/Sud-Est
Temperatura 28°C
Humitat 62%
Pressió 1011 hPa
Visibilitat 10 km o més
Escasses núvols a una alçada de 2000 ft

METAR: VTSG 261300Z 08006KT 040V120 9999 FEW020 28/20 Q1011 NOSIG

Hora: 21:45 (14:45 UTC)

Pronòstic

L'informe es va fer fa 3 hores i 45 minuts, a les 11:00 UTC
Pronòstic vàlid del 26 a les 12 UTC al 27 a les 12 UTC
Vent 8 kt del Est
Visibilitat 10 km o més
Escasses núvols a una alçada de 2000 ft

TAF: VTSG 261100Z 2612/2712 08008KT 9999 FEW020

Observacions i pronòstics meteorològics de més de 4000 aeroports (METAR i TAF).

Les estacions disponibles són els punts grocs i vermells al mapa.

Posi el ratolí al punt desitjat per veure el nom de l'estació.

Feu clic per veure les observacions i els pronòstics meteorològics.

Per canviar el mapa: feu clic els botons verds amb una creu de color negre per apropar; al botó verd amb un guió per allunyar la imatge; o en les fletxes verdes per a mapes adjacents.


METAR-TAF: